JAL6AR UHPP-RJTT
Flight info
| Callsign | JAL6AR |
|---|---|
| Flight time | N/A |
| Altitude | 400 |
| Route | K0924F400 SAMIK4M SAMIK T577 UB G583 BISIV/N0494F400 G583 MVE V8 AWE V7 CHE V13 YTE Y32 RUBIS Y10 GODIN GODIN1S |
| Aircraft | B789/H-SDE1E2E3FGHIJ2J3J4J5M1RWXY/LB1D1 |
Departure
| Time | 2026-04-10 05:45 |
|---|---|
| Airport | Yelizovo Airport (UHPP) |
Arrival
| Time | N/A |
|---|---|
| Airport | Tokyo Haneda International Airport (RJTT) |
| Time | Latitude | Longitude | Altitude | Speed | Heading |
|---|---|---|---|---|---|
| 2026-04-10 05:25 | 53.16973 | 158.42644 | 128 ft | 0 kts | 236° |
| 2026-04-10 05:36 | 53.16976 | 158.42650 | 129 ft | 2 kts | 223° |
| 2026-04-10 05:36 | 53.16990 | 158.42662 | 131 ft | 2 kts | 187° |
| 2026-04-10 05:36 | 53.17006 | 158.42660 | 134 ft | 2 kts | 165° |
| 2026-04-10 05:36 | 53.17021 | 158.42651 | 133 ft | 2 kts | 154° |
| 2026-04-10 05:37 | 53.17035 | 158.42638 | 132 ft | 2 kts | 150° |
| 2026-04-10 05:37 | 53.17040 | 158.42634 | 126 ft | 0 kts | 149° |
| 2026-04-10 05:39 | 53.17039 | 158.42635 | 130 ft | 1 kts | 149° |
| 2026-04-10 05:39 | 53.17022 | 158.42651 | 125 ft | 8 kts | 149° |
| 2026-04-10 05:40 | 53.16996 | 158.42724 | 128 ft | 4 kts | 72° |
| 2026-04-10 05:40 | 53.17034 | 158.42822 | 134 ft | 17 kts | 56° |
| 2026-04-10 05:40 | 53.17099 | 158.43002 | 129 ft | 19 kts | 60° |
| 2026-04-10 05:40 | 53.17170 | 158.43210 | 128 ft | 22 kts | 60° |
| 2026-04-10 05:41 | 53.17250 | 158.43441 | 134 ft | 24 kts | 59° |
| 2026-04-10 05:41 | 53.17332 | 158.43673 | 131 ft | 24 kts | 59° |
| 2026-04-10 05:41 | 53.17420 | 158.43925 | 134 ft | 26 kts | 59° |
| 2026-04-10 05:41 | 53.17486 | 158.44146 | 129 ft | 19 kts | 68° |
| 2026-04-10 05:42 | 53.17539 | 158.44255 | 130 ft | 6 kts | 14° |
| 2026-04-10 05:42 | 53.17595 | 158.44239 | 131 ft | 22 kts | 348° |
| 2026-04-10 05:42 | 53.17789 | 158.44171 | 133 ft | 26 kts | 347° |
| 2026-04-10 05:42 | 53.17958 | 158.44109 | 134 ft | 24 kts | 348° |
| 2026-04-10 05:43 | 53.18120 | 158.44055 | 133 ft | 24 kts | 348° |
| 2026-04-10 05:43 | 53.18276 | 158.44005 | 134 ft | 21 kts | 356° |
| 2026-04-10 05:43 | 53.18333 | 158.44070 | 131 ft | 2 kts | 90° |
| 2026-04-10 05:43 | 53.18324 | 158.44101 | 129 ft | 11 kts | 116° |
| 2026-04-10 05:44 | 53.18269 | 158.44147 | 126 ft | 10 kts | 165° |
| 2026-04-10 05:44 | 53.17998 | 158.44323 | 127 ft | 82 kts | 157° |
| 2026-04-10 05:44 | 53.17224 | 158.44854 | 134 ft | 156 kts | 158° |
| 2026-04-10 05:44 | 53.16094 | 158.45671 | 537 ft | 185 kts | 162° |
| 2026-04-10 05:45 | 53.14886 | 158.46510 | 1404 ft | 190 kts | 163° |
| 2026-04-10 05:45 | 53.13619 | 158.47357 | 2047 ft | 210 kts | 165° |
| 2026-04-10 05:45 | 53.12157 | 158.48267 | 2331 ft | 245 kts | 166° |
| 2026-04-10 05:45 | 53.10418 | 158.49375 | 2529 ft | 288 kts | 164° |
| 2026-04-10 05:46 | 53.08531 | 158.50656 | 3544 ft | 292 kts | 160° |
| 2026-04-10 05:46 | 53.06705 | 158.52023 | 4899 ft | 284 kts | 160° |
| 2026-04-10 05:46 | 53.04852 | 158.52981 | 6089 ft | 276 kts | 179° |
| 2026-04-10 05:46 | 53.02965 | 158.52572 | 6602 ft | 282 kts | 213° |
| 2026-04-10 05:47 | 53.01657 | 158.50263 | 7166 ft | 277 kts | 255° |
| 2026-04-10 05:47 | 53.01430 | 158.47251 | 8519 ft | 250 kts | 273° |
| 2026-04-10 05:47 | 53.01438 | 158.44414 | 9759 ft | 250 kts | 272° |
| 2026-04-10 05:47 | 53.01350 | 158.41471 | 10422 ft | 263 kts | 269° |
| 2026-04-10 05:48 | 53.01301 | 158.38285 | 10656 ft | 290 kts | 273° |
| 2026-04-10 05:48 | 53.01423 | 158.34787 | 10850 ft | 317 kts | 276° |
| 2026-04-10 05:48 | 53.01611 | 158.31026 | 11345 ft | 331 kts | 276° |
| 2026-04-10 05:48 | 53.01753 | 158.27208 | 12258 ft | 335 kts | 274° |
| 2026-04-10 05:49 | 53.01872 | 158.23308 | 13083 ft | 340 kts | 274° |
| 2026-04-10 05:49 | 53.02003 | 158.19362 | 13845 ft | 344 kts | 274° |
| 2026-04-10 05:49 | 53.02146 | 158.15370 | 14584 ft | 348 kts | 275° |
| 2026-04-10 05:49 | 53.02286 | 158.11337 | 15299 ft | 353 kts | 274° |
| 2026-04-10 05:50 | 53.02423 | 158.07232 | 16003 ft | 358 kts | 274° |
| 2026-04-10 05:50 | 53.02560 | 158.03087 | 16708 ft | 361 kts | 274° |
| 2026-04-10 05:50 | 53.02700 | 157.98887 | 17369 ft | 366 kts | 274° |
| 2026-04-10 05:50 | 53.02839 | 157.94636 | 18005 ft | 371 kts | 274° |
| 2026-04-10 05:51 | 53.02978 | 157.90342 | 18593 ft | 374 kts | 274° |
| 2026-04-10 05:51 | 53.03116 | 157.86003 | 19210 ft | 377 kts | 274° |
| 2026-04-10 05:51 | 53.03252 | 157.81634 | 19750 ft | 381 kts | 274° |
| 2026-04-10 05:51 | 53.03391 | 157.77222 | 20318 ft | 384 kts | 273° |
| 2026-04-10 05:52 | 53.03529 | 157.72775 | 20845 ft | 387 kts | 273° |
| 2026-04-10 05:52 | 53.03665 | 157.68288 | 21353 ft | 391 kts | 273° |
| 2026-04-10 05:52 | 53.03797 | 157.63756 | 21816 ft | 394 kts | 271° |
| 2026-04-10 05:52 | 53.03577 | 157.59199 | 22259 ft | 398 kts | 261° |
| 2026-04-10 05:53 | 53.02912 | 157.54716 | 22711 ft | 402 kts | 256° |
| 2026-04-10 05:53 | 53.02205 | 157.50276 | 23181 ft | 405 kts | 256° |
| 2026-04-10 05:53 | 53.01480 | 157.45734 | 23547 ft | 408 kts | 256° |
| 2026-04-10 05:53 | 53.00744 | 157.41169 | 23976 ft | 410 kts | 256° |
| 2026-04-10 05:54 | 53.00000 | 157.36585 | 24330 ft | 413 kts | 256° |
| 2026-04-10 05:54 | 52.99253 | 157.31975 | 24723 ft | 415 kts | 256° |
| 2026-04-10 05:54 | 52.98500 | 157.27334 | 25088 ft | 417 kts | 256° |
| 2026-04-10 05:54 | 52.97739 | 157.22667 | 25433 ft | 420 kts | 256° |
| 2026-04-10 05:55 | 52.96973 | 157.17984 | 25803 ft | 422 kts | 255° |
| 2026-04-10 05:55 | 52.96201 | 157.13272 | 26161 ft | 424 kts | 255° |
| 2026-04-10 05:55 | 52.95423 | 157.08535 | 26496 ft | 427 kts | 255° |
| 2026-04-10 05:55 | 52.94639 | 157.03776 | 26847 ft | 429 kts | 255° |
| 2026-04-10 05:56 | 52.93848 | 156.98991 | 27210 ft | 431 kts | 255° |